createdAt,value
2018-04-16T00:00:38.396Z,99.99
2018-04-16T00:01:38.255Z,99.99
2018-04-16T00:02:38.343Z,99.99
2018-04-16T00:03:38.311Z,99.99
2018-04-16T00:04:38.344Z,99.99
2018-04-16T00:05:38.275Z,99.99
2018-04-16T00:06:38.391Z,99.99
2018-04-16T00:07:38.306Z,99.99
2018-04-16T00:08:38.312Z,99.99
2018-04-16T00:09:38.343Z,99.99
2018-04-16T00:10:38.340Z,99.99
2018-04-16T00:11:38.266Z,99.99
2018-04-16T00:12:38.305Z,99.99
2018-04-16T00:13:38.265Z,99.99
2018-04-16T00:14:38.347Z,99.99
2018-04-16T00:15:38.312Z,99.99
2018-04-16T00:16:38.270Z,99.99
2018-04-16T00:17:38.317Z,99.99
2018-04-16T00:18:38.347Z,99.99
2018-04-16T00:19:38.366Z,99.99
2018-04-16T00:20:38.380Z,99.99
2018-04-16T00:21:38.308Z,99.99
2018-04-16T00:22:38.355Z,99.99
2018-04-16T00:23:38.308Z,99.99
2018-04-16T00:24:38.344Z,99.99
2018-04-16T00:25:38.256Z,99.99
2018-04-16T00:26:38.329Z,99.99
2018-04-16T00:27:38.372Z,99.99
2018-04-16T00:28:38.322Z,99.99
2018-04-16T00:29:38.291Z,99.99
2018-04-16T00:30:38.312Z,99.99
2018-04-16T00:31:38.380Z,99.99
2018-04-16T00:32:38.277Z,99.99
2018-04-16T00:33:38.351Z,99.99
2018-04-16T00:34:38.320Z,99.99
2018-04-16T00:35:38.330Z,99.99
2018-04-16T00:36:38.358Z,99.99
2018-04-16T00:37:38.354Z,99.99
2018-04-16T00:38:38.422Z,99.99
2018-04-16T00:39:38.353Z,99.99
2018-04-16T00:40:38.384Z,99.99
2018-04-16T00:41:38.366Z,99.99
2018-04-16T00:42:38.268Z,99.99
2018-04-16T00:43:38.321Z,99.99
2018-04-16T00:44:38.264Z,99.99
2018-04-16T00:45:38.324Z,99.99
2018-04-16T00:46:38.389Z,99.99
2018-04-16T00:47:38.384Z,99.99
2018-04-16T00:48:38.371Z,99.99
2018-04-16T00:49:38.291Z,99.99
2018-04-16T00:50:38.341Z,99.99
2018-04-16T00:51:38.388Z,99.99
2018-04-16T00:52:38.332Z,99.99
2018-04-16T00:53:38.389Z,99.99
2018-04-16T00:54:38.369Z,99.99
2018-04-16T00:55:38.304Z,99.99
2018-04-16T00:56:38.366Z,99.99
2018-04-16T00:57:38.286Z,99.99
2018-04-16T00:58:38.361Z,99.99
2018-04-16T00:59:38.286Z,99.99
2018-04-16T01:00:38.360Z,99.99
2018-04-16T01:01:38.290Z,99.99
2018-04-16T01:02:38.365Z,99.99
2018-04-16T01:03:38.311Z,99.99
2018-04-16T01:04:38.363Z,99.99
2018-04-16T01:05:38.297Z,99.99
2018-04-16T01:06:38.366Z,99.99
2018-04-16T01:07:38.294Z,99.99
2018-04-16T01:08:38.369Z,99.99
2018-04-16T01:09:38.301Z,99.99
2018-04-16T01:10:38.415Z,99.99
2018-04-16T01:11:38.297Z,99.99
2018-04-16T01:12:38.368Z,99.99
2018-04-16T01:13:38.299Z,99.99
2018-04-16T01:14:38.370Z,99.99
2018-04-16T01:15:38.300Z,99.99
2018-04-16T01:16:38.374Z,99.99
2018-04-16T01:17:38.308Z,99.99
2018-04-16T01:18:38.300Z,99.99
2018-04-16T01:19:38.438Z,99.99
2018-04-16T01:20:38.385Z,99.99
2018-04-16T01:21:38.288Z,99.99
2018-04-16T01:22:38.384Z,99.99
2018-04-16T01:23:38.439Z,99.99
2018-04-16T01:24:38.414Z,99.99
2018-04-16T01:25:38.313Z,99.99
2018-04-16T01:26:38.321Z,99.99
2018-04-16T01:27:38.414Z,99.99
2018-04-16T01:28:38.309Z,99.99
2018-04-16T01:29:38.381Z,99.99
2018-04-16T01:30:38.312Z,99.99
2018-04-16T01:31:38.387Z,99.99
2018-04-16T01:32:38.309Z,99.99
2018-04-16T01:33:38.382Z,99.99
2018-04-16T01:34:38.309Z,99.99
2018-04-16T01:35:38.387Z,99.99
2018-04-16T01:36:38.390Z,99.99
2018-04-16T01:37:38.314Z,99.99
2018-04-16T01:38:38.354Z,99.99
2018-04-16T01:39:38.324Z,99.99
2018-04-16T01:40:38.416Z,99.99
2018-04-16T01:41:38.399Z,99.99
2018-04-16T01:42:38.373Z,99.99
2018-04-16T01:43:38.393Z,99.99
2018-04-16T01:44:38.395Z,99.99
2018-04-16T01:45:38.383Z,99.99
2018-04-16T01:46:38.320Z,99.99
2018-04-16T01:47:38.398Z,99.99
2018-04-16T01:48:38.329Z,99.99
2018-04-16T01:49:38.407Z,99.99
2018-04-16T01:50:38.346Z,99.99
2018-04-16T01:51:38.405Z,99.99
2018-04-16T01:52:38.333Z,99.99
2018-04-16T01:53:38.406Z,99.99
2018-04-16T01:54:38.411Z,99.99
2018-04-16T01:55:38.338Z,99.99
2018-04-16T01:56:38.337Z,99.99
2018-04-16T01:57:38.410Z,99.99
2018-04-16T01:58:38.466Z,99.99
2018-04-16T01:59:38.327Z,99.99
2018-04-16T02:00:38.469Z,99.99
2018-04-16T02:01:38.427Z,99.99
2018-04-16T02:02:38.414Z,99.99
2018-04-16T02:03:38.428Z,99.99
2018-04-16T02:04:38.390Z,99.99
2018-04-16T02:05:38.328Z,99.99
2018-04-16T02:06:38.472Z,99.99
2018-04-16T02:07:38.336Z,99.99
2018-04-16T02:08:38.447Z,99.99
2018-04-16T02:09:38.375Z,99.99
2018-04-16T02:10:38.445Z,99.99
2018-04-16T02:11:38.336Z,99.99
2018-04-16T02:12:38.444Z,99.99
2018-04-16T02:13:38.430Z,99.99
2018-04-16T02:14:38.415Z,99.99
2018-04-16T02:15:38.440Z,99.99
2018-04-16T02:16:38.430Z,99.99
2018-04-16T02:17:38.426Z,99.99
2018-04-16T02:18:38.335Z,99.99
2018-04-16T02:19:38.421Z,99.99
2018-04-16T02:20:38.321Z,99.99
2018-04-16T02:21:38.501Z,99.99
2018-04-16T02:22:38.443Z,99.99
2018-04-16T02:23:38.338Z,99.99
2018-04-16T02:24:38.353Z,99.99
2018-04-16T02:25:38.357Z,99.99
2018-04-16T02:26:38.429Z,99.99
2018-04-16T02:27:38.398Z,99.99
2018-04-16T02:28:38.433Z,99.99
2018-04-16T02:29:38.354Z,99.99
2018-04-16T02:30:38.356Z,99.99
2018-04-16T02:31:38.354Z,99.99
2018-04-16T02:32:38.360Z,99.99
2018-04-16T02:33:38.435Z,99.99
2018-04-16T02:34:38.363Z,99.99
2018-04-16T02:35:38.359Z,99.99
2018-04-16T02:36:38.360Z,99.99
2018-04-16T02:37:38.329Z,99.99
2018-04-16T02:38:38.406Z,99.99
2018-04-16T02:39:38.404Z,99.99
2018-04-16T02:40:38.529Z,99.99
2018-04-16T02:41:38.457Z,99.99
2018-04-16T02:42:38.457Z,99.99
2018-04-16T02:43:38.404Z,99.99
2018-04-16T02:44:38.442Z,99.99
2018-04-16T02:45:38.434Z,99.99
2018-04-16T02:46:38.443Z,99.99
2018-04-16T02:47:38.410Z,99.99
2018-04-16T02:48:38.358Z,99.99
2018-04-16T02:49:38.466Z,99.99
2018-04-16T02:50:38.431Z,99.99
2018-04-16T02:51:38.365Z,99.99
2018-04-16T02:52:38.435Z,99.99
2018-04-16T02:53:38.366Z,99.99
2018-04-16T02:54:38.433Z,99.99
2018-04-16T02:55:38.438Z,99.99
2018-04-16T02:56:38.366Z,99.99
2018-04-16T02:57:38.443Z,99.99
2018-04-16T02:58:38.367Z,99.99
2018-04-16T02:59:38.443Z,99.99
2018-04-16T03:00:38.391Z,99.99
2018-04-16T03:01:38.373Z,99.99
2018-04-16T03:02:38.439Z,99.99
2018-04-16T03:03:38.444Z,99.99
2018-04-16T03:04:38.366Z,99.99
2018-04-16T03:05:38.440Z,99.99
2018-04-16T03:06:38.365Z,99.99
2018-04-16T03:07:38.456Z,99.99
2018-04-16T03:08:38.399Z,99.99
2018-04-16T03:09:38.381Z,99.99
2018-04-16T03:10:38.455Z,99.99
2018-04-16T03:11:38.462Z,99.99
2018-04-16T03:12:38.350Z,99.99
2018-04-16T03:13:38.486Z,99.99
2018-04-16T03:14:38.350Z,99.99
2018-04-16T03:15:38.387Z,99.99
2018-04-16T03:16:38.354Z,99.99
2018-04-16T03:17:38.461Z,99.99
2018-04-16T03:18:38.404Z,99.99
2018-04-16T03:19:38.387Z,99.99
2018-04-16T03:20:38.405Z,99.99
2018-04-16T03:21:38.465Z,99.99
2018-04-16T03:22:38.405Z,99.99
2018-04-16T03:23:38.467Z,99.99
2018-04-16T03:24:38.466Z,99.99
2018-04-16T03:25:38.405Z,99.99
2018-04-16T03:26:38.394Z,99.99
2018-04-16T03:27:38.355Z,99.99
2018-04-16T03:28:38.460Z,99.99
2018-04-16T03:29:38.460Z,99.99
2018-04-16T03:30:38.432Z,99.99
2018-04-16T03:31:38.428Z,99.99
2018-04-16T03:32:38.370Z,99.99
2018-04-16T03:33:38.473Z,99.99
2018-04-16T03:34:38.445Z,99.99
2018-04-16T03:35:38.410Z,99.99
2018-04-16T03:36:38.467Z,99.99
2018-04-16T03:37:38.389Z,99.99
2018-04-16T03:38:38.412Z,99.99
2018-04-16T03:39:38.466Z,99.99
2018-04-16T03:40:38.398Z,99.99
2018-04-16T03:41:38.398Z,99.99
2018-04-16T03:42:38.467Z,99.99
2018-04-16T03:43:38.393Z,99.99
2018-04-16T03:44:38.468Z,99.99
2018-04-16T03:45:38.427Z,99.99
2018-04-16T03:46:38.424Z,99.99
2018-04-16T03:47:38.467Z,99.99
2018-04-16T03:48:38.479Z,99.99
2018-04-16T03:49:38.484Z,99.99
2018-04-16T03:50:38.484Z,99.99
2018-04-16T03:51:38.480Z,99.99
2018-04-16T03:52:38.484Z,99.99
2018-04-16T03:53:38.409Z,99.99
2018-04-16T03:54:38.416Z,99.99
2018-04-16T03:55:38.417Z,99.99
2018-04-16T03:56:38.509Z,99.99
2018-04-16T03:57:38.411Z,99.99
2018-04-16T03:58:38.479Z,99.99
2018-04-16T03:59:38.388Z,99.99
2018-04-16T04:00:38.483Z,99.99
2018-04-16T04:01:38.480Z,99.99
2018-04-16T04:02:38.557Z,99.99
2018-04-16T04:03:38.542Z,99.99
2018-04-16T04:04:38.509Z,99.99
2018-04-16T04:05:38.459Z,99.99
2018-04-16T04:06:38.425Z,99.99
2018-04-16T04:07:38.519Z,99.99
2018-04-16T04:08:38.512Z,99.99
2018-04-16T04:09:38.465Z,99.99
2018-04-16T04:10:38.489Z,99.99
2018-04-16T04:11:38.485Z,99.99
2018-04-16T04:12:38.409Z,99.99
2018-04-16T04:13:38.462Z,99.99
2018-04-16T04:14:38.530Z,99.99
2018-04-16T04:15:38.411Z,99.99
2018-04-16T04:16:38.461Z,99.99
2018-04-16T04:17:38.461Z,99.99
2018-04-16T04:18:38.462Z,99.99
2018-04-16T04:19:38.433Z,99.99
2018-04-16T04:20:38.521Z,99.99
2018-04-16T04:21:38.465Z,99.99
2018-04-16T04:22:38.468Z,99.99
2018-04-16T04:23:38.541Z,99.99
2018-04-16T04:24:38.414Z,99.99
2018-04-16T04:25:38.495Z,99.99
2018-04-16T04:26:38.534Z,99.99
2018-04-16T04:27:38.468Z,99.99
2018-04-16T04:28:38.475Z,99.99
2018-04-16T04:29:38.425Z,99.99
2018-04-16T04:30:38.437Z,99.99
2018-04-16T04:31:38.507Z,99.99
2018-04-16T04:32:38.539Z,99.99
2018-04-16T04:33:38.562Z,99.99
2018-04-16T04:34:38.469Z,99.99
2018-04-16T04:35:38.432Z,99.99
2018-04-16T04:36:38.509Z,99.99
2018-04-16T04:37:38.571Z,99.99
2018-04-16T04:38:38.451Z,99.99
2018-04-16T04:39:38.512Z,99.99
2018-04-16T04:40:38.452Z,99.99
2018-04-16T04:41:38.518Z,99.99
2018-04-16T04:42:38.516Z,99.99
2018-04-16T04:43:38.446Z,99.99
2018-04-16T04:44:38.443Z,99.99
2018-04-16T04:45:38.441Z,99.99
2018-04-16T04:46:38.526Z,99.99
2018-04-16T04:47:38.410Z,99.99
2018-04-16T04:48:38.453Z,99.99
2018-04-16T04:49:38.407Z,99.99
2018-04-16T04:50:38.411Z,99.99
2018-04-16T04:51:38.421Z,99.99
2018-04-16T04:52:38.452Z,99.99
2018-04-16T04:53:38.411Z,99.99
2018-04-16T04:54:38.500Z,99.99
2018-04-16T04:55:38.423Z,99.99
2018-04-16T04:56:38.500Z,99.99
2018-04-16T04:57:38.449Z,99.99
2018-04-16T04:58:38.561Z,99.99
2018-04-16T04:59:38.546Z,99.99
2018-04-16T05:00:38.524Z,99.99
2018-04-16T05:01:38.450Z,99.99
2018-04-16T05:02:38.529Z,99.99
2018-04-16T05:03:38.531Z,99.99
2018-04-16T05:04:38.549Z,99.99
2018-04-16T05:05:38.543Z,99.99
2018-04-16T05:06:38.555Z,99.99
2018-04-16T05:07:38.505Z,99.99
2018-04-16T05:08:38.473Z,99.99
2018-04-16T05:09:38.442Z,99.99
2018-04-16T05:10:38.432Z,99.99
2018-04-16T05:11:38.385Z,99.99
2018-04-16T05:12:38.484Z,99.99
2018-04-16T05:13:38.434Z,99.99
2018-04-16T05:14:38.479Z,99.99
2018-04-16T05:15:38.478Z,99.99
2018-04-16T05:16:38.387Z,99.99
2018-04-16T05:17:38.485Z,99.99
2018-04-16T05:18:38.532Z,99.99
2018-04-16T05:19:38.493Z,99.99
2018-04-16T05:20:38.521Z,99.99
2018-04-16T05:21:38.438Z,99.99
2018-04-16T05:22:38.519Z,99.99
2018-04-16T05:23:38.572Z,99.99
2018-04-16T05:24:38.523Z,99.99
2018-04-16T05:25:38.437Z,99.99
2018-04-16T05:26:38.483Z,99.99
2018-04-16T05:27:38.577Z,99.99
2018-04-16T05:28:38.526Z,99.99
2018-04-16T05:29:38.530Z,99.99
2018-04-16T05:30:38.456Z,99.99
2018-04-16T05:31:38.444Z,99.99
2018-04-16T05:32:38.529Z,99.99
2018-04-16T05:33:38.533Z,99.99
2018-04-16T05:34:38.449Z,99.99
2018-04-16T05:35:38.536Z,99.99
2018-04-16T05:36:38.457Z,99.99
2018-04-16T05:37:38.537Z,99.99
2018-04-16T05:38:38.508Z,99.99
2018-04-16T05:39:38.546Z,99.99
2018-04-16T05:40:38.514Z,99.99
2018-04-16T05:41:38.584Z,99.99
2018-04-16T05:42:38.579Z,99.99
2018-04-16T05:43:38.542Z,99.99
2018-04-16T05:44:38.539Z,99.99
2018-04-16T05:45:38.552Z,99.99
2018-04-16T05:46:38.508Z,99.99
2018-04-16T05:47:38.548Z,99.99
2018-04-16T05:48:38.488Z,99.99
2018-04-16T05:49:38.506Z,99.99
2018-04-16T05:50:38.544Z,99.99
2018-04-16T05:51:38.539Z,99.99
2018-04-16T05:52:38.423Z,99.99
2018-04-16T05:53:38.543Z,99.99
2018-04-16T05:54:38.543Z,99.99
2018-04-16T05:55:38.548Z,99.99
2018-04-16T05:56:38.543Z,99.99
2018-04-16T05:57:38.460Z,99.99
2018-04-16T05:58:38.550Z,99.99
2018-04-16T05:59:38.515Z,99.99
2018-04-16T06:00:38.490Z,99.99
2018-04-16T06:01:38.460Z,99.99
2018-04-16T06:02:38.466Z,99.99
2018-04-16T06:03:38.553Z,99.99
2018-04-16T06:04:38.479Z,99.99
2018-04-16T06:05:38.511Z,99.99
2018-04-16T06:06:38.526Z,99.99
2018-04-16T06:07:38.467Z,99.99
2018-04-16T06:08:38.595Z,99.99
2018-04-16T06:09:38.570Z,99.99
2018-04-16T06:10:38.525Z,99.99
2018-04-16T06:11:38.491Z,99.99
2018-04-16T06:12:38.526Z,99.99
2018-04-16T06:13:38.623Z,99.99
2018-04-16T06:14:38.507Z,99.99
2018-04-16T06:15:38.507Z,99.99
2018-04-16T06:16:38.503Z,99.99
2018-04-16T06:17:38.527Z,99.99
2018-04-16T06:18:38.589Z,99.99
2018-04-16T06:19:38.542Z,99.99
2018-04-16T06:20:38.507Z,99.99
2018-04-16T06:21:38.493Z,99.99
2018-04-16T06:22:38.545Z,99.99
2018-04-16T06:23:38.595Z,99.99
2018-04-16T06:24:38.534Z,99.99
2018-04-16T06:25:38.542Z,99.99
2018-04-16T06:26:38.572Z,99.99
2018-04-16T06:27:38.550Z,99.99
2018-04-16T06:28:38.600Z,99.99
2018-04-16T06:29:38.584Z,99.99
2018-04-16T06:30:38.600Z,99.99
2018-04-16T06:31:38.498Z,99.99
2018-04-16T06:32:38.512Z,99.99
2018-04-16T06:33:38.479Z,99.99
2018-04-16T06:34:38.493Z,99.99
2018-04-16T06:35:38.584Z,99.99
2018-04-16T06:36:38.634Z,99.99
2018-04-16T06:37:38.504Z,99.99
2018-04-16T06:38:38.518Z,99.99
2018-04-16T06:39:38.554Z,99.99
2018-04-16T06:40:38.455Z,99.99
2018-04-16T06:41:38.544Z,99.99
2018-04-16T06:42:38.482Z,99.99
2018-04-16T06:43:38.535Z,99.99
2018-04-16T06:44:38.562Z,99.99
2018-04-16T06:45:38.564Z,99.99
2018-04-16T06:46:38.539Z,99.99
2018-04-16T06:47:38.588Z,99.99
2018-04-16T06:48:38.567Z,99.99
2018-04-16T06:49:38.478Z,99.99
2018-04-16T06:50:38.561Z,99.99
2018-04-16T06:51:38.519Z,99.99
2018-04-16T06:52:38.639Z,99.99
2018-04-16T06:53:38.463Z,99.99
2018-04-16T06:54:38.573Z,99.99
2018-04-16T06:55:38.490Z,99.99
2018-04-16T06:56:38.575Z,99.99
2018-04-16T06:57:38.487Z,99.99
2018-04-16T06:58:38.603Z,99.99
2018-04-16T06:59:38.590Z,99.99
2018-04-16T07:00:38.523Z,99.99
2018-04-16T07:01:38.484Z,99.99
2018-04-16T07:02:38.525Z,99.99
2018-04-16T07:03:38.598Z,99.99
2018-04-16T07:04:38.529Z,99.99
2018-04-16T07:05:38.601Z,99.99
2018-04-16T07:06:38.526Z,99.99
2018-04-16T07:07:38.529Z,99.99
2018-04-16T07:08:38.558Z,99.99
2018-04-16T07:09:38.610Z,99.99
2018-04-16T07:10:38.625Z,99.99
2018-04-16T07:11:38.502Z,99.99
2018-04-16T07:12:38.624Z,99.99
2018-04-16T07:13:38.575Z,99.99
2018-04-16T07:14:38.507Z,99.99
2018-04-16T07:15:38.617Z,99.99
2018-04-16T07:16:38.657Z,99.99
2018-04-16T07:17:38.574Z,99.99
2018-04-16T07:18:38.561Z,99.99
2018-04-16T07:19:38.633Z,99.99
2018-04-16T07:20:38.602Z,99.99
2018-04-16T07:21:38.630Z,99.99
2018-04-16T07:22:38.570Z,99.99
2018-04-16T07:23:38.573Z,99.99
2018-04-16T07:24:38.608Z,99.99
2018-04-16T07:25:38.542Z,99.99
2018-04-16T07:26:38.649Z,99.99
2018-04-16T07:27:38.544Z,99.99
2018-04-16T07:28:38.531Z,99.99
2018-04-16T07:29:38.579Z,99.99
2018-04-16T07:30:38.647Z,99.99
2018-04-16T07:31:38.583Z,99.99
2018-04-16T07:32:38.623Z,99.99
2018-04-16T07:33:38.593Z,99.99
2018-04-16T07:34:38.554Z,99.99
2018-04-16T07:35:38.646Z,99.99
2018-04-16T07:36:38.652Z,99.99
2018-04-16T07:37:38.582Z,99.99
2018-04-16T07:38:38.543Z,99.99
2018-04-16T07:39:38.546Z,99.99
2018-04-16T07:40:38.548Z,99.99
2018-04-16T07:41:38.624Z,99.99
2018-04-16T07:42:38.572Z,99.99
2018-04-16T07:43:38.517Z,99.99
2018-04-16T07:44:38.559Z,99.99
2018-04-16T07:45:38.552Z,99.99
2018-04-16T07:46:38.551Z,99.99
2018-04-16T07:47:38.625Z,99.99
2018-04-16T07:48:38.551Z,99.99
2018-04-16T07:49:38.589Z,99.99
2018-04-16T07:50:38.547Z,99.99
2018-04-16T07:51:38.620Z,99.99
2018-04-16T07:52:38.592Z,99.99
2018-04-16T07:53:38.652Z,99.99
2018-04-16T07:54:38.690Z,99.99
2018-04-16T07:55:38.596Z,99.99
2018-04-16T07:56:38.664Z,99.99
2018-04-16T07:57:38.611Z,99.99
2018-04-16T07:58:38.668Z,99.99
2018-04-16T07:59:38.551Z,99.99
2018-04-16T08:00:38.659Z,99.99
2018-04-16T08:01:38.558Z,99.99
2018-04-16T08:02:38.654Z,99.99
2018-04-16T08:03:38.660Z,99.99
2018-04-16T08:04:38.597Z,99.99
2018-04-16T08:05:38.652Z,99.99
2018-04-16T08:06:38.670Z,99.99
2018-04-16T08:07:38.692Z,99.92
2018-04-16T08:08:38.561Z,99.53
2018-04-16T08:09:38.636Z,99.21
2018-04-16T08:10:38.714Z,98.91
2018-04-16T08:11:38.637Z,98.80
2018-04-16T08:12:38.556Z,98.48
2018-04-16T08:13:38.541Z,98.21
2018-04-16T08:14:38.560Z,97.74
2018-04-16T08:15:38.637Z,97.26
2018-04-16T08:16:38.675Z,97.12
2018-04-16T08:17:38.663Z,96.93
2018-04-16T08:18:38.675Z,96.36
2018-04-16T08:19:38.563Z,96.15
2018-04-16T08:20:38.581Z,95.77
2018-04-16T08:21:38.550Z,95.45
2018-04-16T08:22:38.675Z,95.31
2018-04-16T08:23:38.620Z,94.23
2018-04-16T08:24:38.607Z,93.37
2018-04-16T08:25:38.613Z,93.13
2018-04-16T08:26:38.606Z,92.89
2018-04-16T08:27:38.648Z,92.65
2018-04-16T08:28:38.629Z,91.41
2018-04-16T08:29:38.691Z,90.90
2018-04-16T08:30:38.678Z,90.93
2018-04-16T08:31:38.676Z,90.09
2018-04-16T08:32:38.679Z,89.11
2018-04-16T08:33:38.567Z,88.62
2018-04-16T08:34:38.557Z,87.51
2018-04-16T08:35:38.574Z,86.94
2018-04-16T08:36:38.692Z,84.58
2018-04-16T08:37:38.691Z,84.84
2018-04-16T08:38:38.693Z,85.21
2018-04-16T08:39:38.550Z,85.05
2018-04-16T08:40:38.585Z,85.61
2018-04-16T08:41:38.617Z,83.83
2018-04-16T08:42:38.552Z,82.24
2018-04-16T08:43:38.643Z,81.84
2018-04-16T08:44:38.551Z,81.08
2018-04-16T08:45:38.559Z,81.58
2018-04-16T08:46:38.525Z,79.63
2018-04-16T08:47:38.555Z,79.71
2018-04-16T08:48:38.554Z,79.97
2018-04-16T08:49:38.576Z,79.99
2018-04-16T08:50:38.604Z,78.07
2018-04-16T08:51:38.659Z,78.01
2018-04-16T08:52:38.677Z,78.12
2018-04-16T08:53:38.670Z,76.97
2018-04-16T08:54:38.623Z,77.97
2018-04-16T08:55:38.661Z,78.97
2018-04-16T08:56:38.653Z,79.75
2018-04-16T08:57:38.615Z,78.59
2018-04-16T08:58:38.661Z,77.31
2018-04-16T08:59:38.610Z,76.36
2018-04-16T09:00:38.621Z,75.39
2018-04-16T09:01:38.622Z,76.44
2018-04-16T09:02:38.666Z,75.76
2018-04-16T09:03:38.604Z,75.65
2018-04-16T09:04:38.677Z,74.84
2018-04-16T09:05:38.604Z,75.60
2018-04-16T09:06:38.601Z,73.87
2018-04-16T09:07:38.675Z,73.95
2018-04-16T09:08:38.603Z,74.36
2018-04-16T09:09:38.621Z,75.23
2018-04-16T09:10:38.620Z,72.46
2018-04-16T09:11:38.574Z,73.30
2018-04-16T09:12:38.551Z,73.95
2018-04-16T09:13:38.643Z,74.00
2018-04-16T09:14:38.582Z,72.09
2018-04-16T09:15:38.585Z,69.80
2018-04-16T09:16:38.533Z,71.05
2018-04-16T09:17:38.625Z,71.13
2018-04-16T09:18:38.536Z,71.26
2018-04-16T09:19:38.644Z,70.97
2018-04-16T09:20:38.759Z,72.17
2018-04-16T09:21:38.662Z,70.48
2018-04-16T09:22:38.608Z,70.48
2018-04-16T09:23:38.698Z,71.73
2018-04-16T09:24:38.652Z,71.96
2018-04-16T09:25:38.719Z,68.43
2018-04-16T09:26:38.709Z,67.91
2018-04-16T09:27:38.684Z,67.57
2018-04-16T09:28:38.679Z,67.67
2018-04-16T09:29:38.595Z,65.96
2018-04-16T09:30:38.729Z,68.35
2018-04-16T09:31:38.662Z,67.18
2018-04-16T09:32:38.695Z,65.76
2018-04-16T09:33:38.726Z,66.12
2018-04-16T09:34:38.765Z,64.18
2018-04-16T09:35:38.714Z,65.37
2018-04-16T09:36:38.721Z,64.18
2018-04-16T09:37:38.594Z,66.04
2018-04-16T09:38:38.730Z,69.51
2018-04-16T09:39:38.656Z,67.96
2018-04-16T09:40:38.624Z,66.12
2018-04-16T09:41:38.708Z,64.75
2018-04-16T09:42:38.697Z,65.08
2018-04-16T09:43:38.628Z,64.82
2018-04-16T09:44:38.581Z,63.95
2018-04-16T09:45:38.708Z,64.46
2018-04-16T09:46:38.694Z,65.65
2018-04-16T09:47:38.629Z,67.36
2018-04-16T09:48:38.702Z,67.44
2018-04-16T09:49:38.715Z,69.98
2018-04-16T09:50:38.671Z,69.85
2018-04-16T09:51:38.596Z,66.69
2018-04-16T09:52:38.660Z,68.55
2018-04-16T09:53:38.679Z,67.20
2018-04-16T09:54:38.658Z,66.81
2018-04-16T09:55:38.735Z,65.83
2018-04-16T09:56:38.726Z,66.53
2018-04-16T09:57:38.674Z,67.54
2018-04-16T09:58:38.679Z,66.95
2018-04-16T09:59:38.712Z,67.18
2018-04-16T10:00:38.644Z,68.11
2018-04-16T10:01:38.711Z,68.16
2018-04-16T10:02:38.638Z,65.86
2018-04-16T10:03:38.710Z,66.84
2018-04-16T10:04:38.709Z,66.01
2018-04-16T10:05:38.648Z,65.76
2018-04-16T10:06:38.641Z,64.36
2018-04-16T10:07:38.597Z,64.90
2018-04-16T10:08:38.712Z,66.30
2018-04-16T10:09:38.741Z,65.81
2018-04-16T10:10:38.711Z,64.95
2018-04-16T10:11:38.688Z,63.02
2018-04-16T10:12:38.731Z,64.38
2018-04-16T10:13:38.690Z,62.87
2018-04-16T10:14:38.718Z,63.33
2018-04-16T10:15:38.712Z,63.62
2018-04-16T10:16:38.689Z,64.93
2018-04-16T10:17:38.716Z,63.92
2018-04-16T10:18:38.681Z,63.35
2018-04-16T10:19:38.649Z,63.51
2018-04-16T10:20:38.721Z,63.02
2018-04-16T10:21:38.651Z,61.46
2018-04-16T10:22:38.720Z,63.59
2018-04-16T10:23:38.721Z,61.89
2018-04-16T10:24:38.651Z,60.97
2018-04-16T10:25:38.722Z,58.76
2018-04-16T10:26:38.620Z,60.66
2018-04-16T10:27:38.657Z,59.68
2018-04-16T10:28:38.731Z,60.58
2018-04-16T10:29:38.656Z,60.63
2018-04-16T10:30:38.725Z,59.40
2018-04-16T10:31:38.730Z,59.12
2018-04-16T10:32:38.660Z,59.97
2018-04-16T10:33:38.663Z,58.17
2018-04-16T10:34:38.664Z,58.59
2018-04-16T10:35:38.707Z,59.63
2018-04-16T10:36:38.655Z,57.00
2018-04-16T10:37:38.737Z,57.82
2018-04-16T10:38:38.668Z,57.66
2018-04-16T10:39:38.707Z,57.13
2018-04-16T10:40:38.730Z,56.49
2018-04-16T10:41:38.757Z,56.95
2018-04-16T10:42:38.718Z,55.72
2018-04-16T10:43:38.711Z,56.16
2018-04-16T10:44:38.741Z,55.50
2018-04-16T10:45:38.734Z,57.46
2018-04-16T10:46:38.779Z,56.11
2018-04-16T10:47:38.639Z,57.92
2018-04-16T10:48:38.658Z,54.41
2018-04-16T10:49:38.759Z,55.83
2018-04-16T10:50:38.739Z,55.65
2018-04-16T10:51:38.700Z,57.33
2018-04-16T10:52:38.760Z,57.64
2018-04-16T10:53:38.736Z,57.02
2018-04-16T10:54:38.711Z,57.41
2018-04-16T10:55:38.721Z,57.15
2018-04-16T10:56:38.764Z,56.87
2018-04-16T10:57:38.736Z,58.53
2018-04-16T10:58:38.713Z,62.69
2018-04-16T10:59:38.732Z,58.66
2018-04-16T11:00:38.646Z,57.38
2018-04-16T11:01:38.737Z,56.61
2018-04-16T11:02:38.698Z,55.78
2018-04-16T11:03:38.650Z,55.67
2018-04-16T11:04:38.685Z,56.26
2018-04-16T11:05:38.744Z,57.02
2018-04-16T11:06:38.674Z,55.17
2018-04-16T11:07:38.653Z,57.33
2018-04-16T11:08:38.742Z,58.33
2018-04-16T11:09:38.703Z,54.81
2018-04-16T11:10:38.673Z,53.69
2018-04-16T11:11:38.707Z,53.36
2018-04-16T11:12:38.775Z,52.75
2018-04-16T11:13:38.790Z,53.67
2018-04-16T11:14:38.706Z,54.37
2018-04-16T11:15:38.719Z,52.98
2018-04-16T11:16:38.795Z,54.25
2018-04-16T11:17:38.725Z,55.11
2018-04-16T11:18:38.755Z,55.04
2018-04-16T11:19:38.752Z,56.16
2018-04-16T11:20:38.688Z,56.52
2018-04-16T11:21:38.689Z,55.39
2018-04-16T11:22:38.757Z,55.93
2018-04-16T11:23:38.686Z,55.72
2018-04-16T11:24:38.760Z,54.86
2018-04-16T11:25:38.693Z,56.90
2018-04-16T11:26:38.705Z,55.93
2018-04-16T11:27:38.759Z,54.91
2018-04-16T11:28:38.691Z,52.04
2018-04-16T11:29:38.753Z,53.11
2018-04-16T11:30:38.669Z,51.44
2018-04-16T11:31:38.631Z,52.55
2018-04-16T11:32:38.646Z,50.86
2018-04-16T11:33:38.644Z,49.92
2018-04-16T11:34:38.715Z,50.75
2018-04-16T11:35:38.755Z,50.20
2018-04-16T11:36:38.764Z,50.15
2018-04-16T11:37:38.667Z,50.58
2018-04-16T11:38:38.667Z,51.95
2018-04-16T11:39:38.775Z,50.27
2018-04-16T11:40:38.627Z,50.48
2018-04-16T11:41:38.634Z,50.96
2018-04-16T11:42:38.755Z,49.47
2018-04-16T11:43:38.661Z,49.69
2018-04-16T11:44:38.730Z,52.25
2018-04-16T11:45:38.772Z,52.48
2018-04-16T11:46:38.716Z,51.11
2018-04-16T11:47:38.758Z,52.45
2018-04-16T11:48:38.665Z,51.84
2018-04-16T11:49:38.744Z,52.10
2018-04-16T11:50:38.742Z,51.82
2018-04-16T11:51:38.741Z,50.83
2018-04-16T11:52:38.743Z,52.55
2018-04-16T11:53:38.714Z,50.71
2018-04-16T11:54:38.730Z,50.48
2018-04-16T11:55:38.740Z,50.83
2018-04-16T11:56:38.738Z,49.42
2018-04-16T11:57:38.814Z,46.60
2018-04-16T11:58:38.742Z,46.30
2018-04-16T11:59:38.783Z,49.06
2018-04-16T12:00:38.780Z,47.71
2018-04-16T12:01:38.713Z,48.48
2018-04-16T12:02:38.785Z,48.44
2018-04-16T12:03:38.717Z,49.72
2018-04-16T12:04:38.747Z,47.53
2018-04-16T12:05:38.784Z,44.77
2018-04-16T12:06:38.721Z,46.75
2018-04-16T12:07:38.786Z,45.02
2018-04-16T12:08:38.720Z,45.75
2018-04-16T12:09:38.726Z,45.52
2018-04-16T12:10:38.817Z,45.37
2018-04-16T12:11:38.740Z,45.05
2018-04-16T12:12:38.806Z,46.48
2018-04-16T12:13:38.763Z,45.52
2018-04-16T12:14:38.772Z,47.18
2018-04-16T12:15:38.788Z,46.45
2018-04-16T12:16:38.843Z,45.22
2018-04-16T12:17:38.713Z,45.90
2018-04-16T12:18:38.757Z,45.15
2018-04-16T12:19:38.770Z,44.68
2018-04-16T12:20:38.826Z,46.75
2018-04-16T12:21:38.697Z,46.38
2018-04-16T12:22:38.763Z,45.65
2018-04-16T12:23:38.762Z,45.90
2018-04-16T12:25:38.834Z,47.38
2018-04-16T12:26:38.813Z,45.82
2018-04-16T12:27:38.820Z,47.96
2018-04-16T12:28:38.827Z,42.58
2018-04-16T12:29:38.687Z,42.78
2018-04-16T12:30:38.707Z,42.72
2018-04-16T12:31:38.758Z,43.77
2018-04-16T12:32:38.793Z,42.10
2018-04-16T12:33:38.735Z,43.08
2018-04-16T12:34:38.735Z,43.13
2018-04-16T12:35:38.805Z,42.75
2018-04-16T12:36:38.797Z,45.10
2018-04-16T12:37:38.675Z,43.85
2018-04-16T12:38:38.692Z,44.57
2018-04-16T12:39:38.878Z,44.57
2018-04-16T12:40:38.849Z,44.39
2018-04-16T12:41:38.807Z,44.02
2018-04-16T12:42:38.739Z,44.22
2018-04-16T12:43:38.829Z,41.95
2018-04-16T12:44:38.812Z,43.45
2018-04-16T12:45:38.745Z,43.13
2018-04-16T12:46:38.742Z,43.08
2018-04-16T12:47:38.812Z,42.90
2018-04-16T12:48:38.814Z,40.93
2018-04-16T12:49:38.845Z,42.53
2018-04-16T12:50:38.834Z,42.28
2018-04-16T12:51:38.832Z,41.90
2018-04-16T12:52:38.780Z,41.23
2018-04-16T12:53:38.733Z,42.53